createdAt,value
2023-05-10T00:09:12.262Z,25.27
2023-05-10T00:19:17.337Z,25.28
2023-05-10T00:29:22.890Z,25.20
2023-05-10T00:39:28.316Z,25.15
2023-05-10T00:49:33.548Z,25.15
2023-05-10T00:59:38.738Z,25.11
2023-05-10T01:09:43.686Z,25.20
2023-05-10T01:19:49.603Z,25.21
2023-05-10T01:30:09.235Z,25.19
2023-05-10T01:40:05.387Z,25.13
2023-05-10T01:50:10.495Z,25.14
2023-05-10T02:00:16.489Z,25.07
2023-05-10T02:10:21.819Z,25.11
2023-05-10T02:20:27.367Z,25.10
2023-05-10T02:30:32.391Z,25.07
2023-05-10T02:40:37.695Z,25.14
2023-05-10T02:50:43.204Z,25.10
2023-05-10T03:00:48.451Z,25.08
2023-05-10T03:10:53.867Z,25.05
2023-05-10T03:20:58.985Z,25.01
2023-05-10T03:31:04.144Z,25.00
2023-05-10T03:41:09.552Z,24.97
2023-05-10T03:51:15.102Z,24.99
2023-05-10T04:01:20.505Z,25.04
2023-05-10T04:11:26.193Z,25.04
2023-05-10T04:21:31.243Z,24.98
2023-05-10T04:31:36.440Z,24.94
2023-05-10T04:41:42.114Z,24.96
2023-05-10T04:51:47.337Z,24.93
2023-05-10T05:01:55.987Z,24.91
2023-05-10T05:12:01.248Z,24.93
2023-05-10T05:22:06.427Z,24.97
2023-05-10T05:32:11.723Z,24.97
2023-05-10T05:42:17.205Z,24.96
2023-05-10T05:52:22.398Z,24.92
2023-05-10T06:02:27.855Z,24.90
2023-05-10T06:12:33.423Z,24.88
2023-05-10T06:22:38.590Z,24.88
2023-05-10T06:32:44.009Z,24.87
2023-05-10T06:42:49.371Z,24.87
2023-05-10T06:52:54.989Z,24.98
2023-05-10T07:03:00.259Z,24.91
2023-05-10T07:13:05.779Z,24.89
2023-05-10T07:23:11.177Z,24.83
2023-05-10T07:33:16.740Z,24.73
2023-05-10T07:43:21.881Z,24.71
2023-05-10T07:53:26.962Z,24.77
2023-05-10T08:03:32.183Z,24.71
2023-05-10T08:13:37.941Z,24.70
2023-05-10T08:23:43.210Z,24.73
2023-05-10T08:33:48.641Z,24.70
2023-05-10T08:43:54.192Z,24.75
2023-05-10T08:53:59.770Z,24.79
2023-05-10T09:04:05.248Z,24.87
2023-05-10T09:14:10.620Z,24.90
2023-05-10T09:24:15.648Z,24.86
2023-05-10T09:34:20.933Z,24.85
2023-05-10T09:44:27.122Z,24.86
2023-05-10T09:54:32.568Z,24.88
2023-05-10T10:04:38.644Z,24.91
2023-05-10T10:14:45.032Z,24.92
2023-05-10T10:24:50.940Z,24.88
2023-05-10T10:34:56.018Z,24.91
2023-05-10T10:45:02.180Z,24.95
2023-05-10T10:55:07.770Z,24.97
2023-05-10T11:05:13.142Z,25.00
2023-05-10T11:15:18.620Z,25.09
2023-05-10T11:25:23.555Z,25.07
2023-05-10T11:35:29.208Z,25.17
2023-05-10T11:45:34.758Z,25.16
2023-05-10T11:55:40.153Z,25.21
2023-05-10T12:05:45.783Z,25.22
2023-05-10T12:15:50.897Z,25.16
2023-05-10T12:25:56.567Z,25.23
2023-05-10T12:36:02.249Z,25.28
2023-05-10T12:46:08.201Z,25.24
2023-05-10T12:56:13.872Z,25.22
2023-05-10T13:06:19.292Z,25.25
2023-05-10T13:16:24.711Z,25.28
2023-05-10T13:26:30.318Z,25.35
2023-05-10T13:36:35.701Z,25.36
2023-05-10T13:46:41.063Z,25.29
2023-05-10T13:56:47.162Z,25.30
2023-05-10T14:06:52.695Z,25.30
2023-05-10T14:16:58.103Z,25.32
2023-05-10T14:27:03.479Z,25.34
2023-05-10T14:37:09.081Z,25.35
2023-05-10T14:47:14.380Z,25.37
2023-05-10T14:57:19.571Z,25.38
2023-05-10T15:07:25.001Z,25.40
2023-05-10T15:17:30.263Z,25.40
2023-05-10T15:27:35.751Z,25.42
2023-05-10T15:37:41.107Z,25.40
2023-05-10T15:47:46.147Z,25.39
2023-05-10T15:57:51.060Z,25.38
2023-05-10T16:07:56.796Z,25.38
2023-05-10T16:18:02.283Z,25.40
2023-05-10T16:28:08.157Z,25.37
2023-05-10T16:38:14.053Z,25.44
2023-05-10T16:48:19.459Z,25.43
2023-05-10T16:58:24.489Z,25.37
2023-05-10T17:08:29.884Z,25.41
2023-05-10T17:18:35.233Z,25.41
2023-05-10T17:28:40.519Z,25.42
2023-05-10T17:38:45.947Z,25.41
2023-05-10T17:48:51.196Z,25.39
2023-05-10T17:58:56.640Z,25.38
2023-05-10T18:09:01.981Z,25.36
2023-05-10T18:19:07.492Z,25.34
2023-05-10T18:29:12.706Z,25.37
2023-05-10T18:39:17.907Z,25.36
2023-05-10T18:49:23.254Z,25.23
2023-05-10T18:59:28.597Z,25.37
2023-05-10T19:09:33.906Z,25.40
2023-05-10T19:19:39.171Z,25.47
2023-05-10T19:29:44.311Z,25.50
2023-05-10T19:39:49.808Z,25.51
2023-05-10T19:49:55.168Z,25.52
2023-05-10T20:00:01.425Z,25.54
2023-05-10T20:10:06.761Z,25.55
2023-05-10T20:20:12.013Z,25.56
2023-05-10T20:30:17.527Z,25.60
2023-05-10T20:40:23.297Z,25.64
2023-05-10T20:50:28.367Z,25.67
2023-05-10T21:00:33.636Z,25.70
2023-05-10T21:10:38.803Z,25.67
2023-05-10T21:20:44.204Z,25.65
2023-05-10T21:30:49.294Z,25.62
2023-05-10T21:40:54.258Z,25.59
2023-05-10T21:50:59.266Z,25.57
2023-05-10T22:01:04.694Z,25.57
2023-05-10T22:11:10.693Z,25.56
2023-05-10T22:21:15.696Z,25.53
2023-05-10T22:31:21.168Z,25.51
2023-05-10T22:41:26.351Z,25.50
2023-05-10T22:51:31.301Z,25.51
2023-05-10T23:01:36.853Z,25.49
2023-05-10T23:11:42.673Z,25.49
2023-05-10T23:21:48.214Z,25.47
2023-05-10T23:31:53.779Z,25.47
2023-05-10T23:41:59.136Z,25.45
2023-05-10T23:52:04.407Z,25.43
